»·PEaware :: N623JB KBUR-KLAS

N623JB :: KBUR-KLAS

FLIGHT INFORMATION

Flight Status: Arrived
Operator: Privately registered:
United States
More flights under this callsign
Pilot: Jonathan B. (32222)
Aircraft: BEECH AIRCRAFT BONANZA
(BE35)
More flights by this aircraft type
Origin: KBUR Bob Hope-Burbank
United States
Destination: KLAS McCarran Intl
United States
More flights between these airports :: More routes between these airports
Route: VNY3 DAG CRESO4
File this flight plan on PilotEdge
Remarks:
Altitude:
(Current/Filed)
11,000ft
Speed:
(Current/Filed)
170kts
Departed: 21-Nov-20 08:30 AM
Arrived: 21-Nov-20 10:19 AM
Distance/Time
Traveled:
6789nm/1:49
Distance/Time
To Go:
Arrived

Flight Plot

Page will automatically refresh every two minutes.

Flight plan parsing failed; only flown route is shown


Map Options




Map Legend


Flown Route
Filed Route
Departure Airport
Arrival Airport
Navaid (VOR, NDB)
Fix

Horizontal Profiles

Position Reports

Time Latitude Longitude Heading Altitude Ground
Speed
21-Nov-20 08:03 34.199448 -118.359436 177 717ft 0kts
21-Nov-20 08:04 34.199237 -118.359404 170 716ft 0kts
21-Nov-20 08:05 34.199237 -118.359404 170 716ft 0kts
21-Nov-20 08:06 34.199237 -118.359404 170 716ft 0kts
21-Nov-20 08:07 34.199237 -118.359404 170 716ft 0kts
21-Nov-20 08:08 34.199237 -118.359404 170 716ft 0kts
21-Nov-20 08:09 34.199237 -118.359404 170 716ft 0kts
21-Nov-20 08:10 34.199237 -118.359404 170 716ft 0kts
21-Nov-20 08:11 34.199238 -118.359404 170 716ft 0kts
21-Nov-20 08:12 34.199201 -118.359386 146 716ft 4kts
21-Nov-20 08:13 34.199630 -118.359035 38 717ft 0kts
21-Nov-20 08:14 34.199630 -118.359035 38 717ft 0kts
21-Nov-20 08:15 34.199630 -118.359035 38 717ft 0kts
21-Nov-20 08:16 34.199630 -118.359035 38 717ft 0kts
21-Nov-20 08:17 34.199630 -118.359035 38 717ft 0kts
21-Nov-20 08:18 34.199630 -118.359035 38 717ft 0kts
21-Nov-20 08:19 34.199630 -118.359035 38 717ft 0kts
21-Nov-20 08:20 34.199630 -118.359035 38 717ft 0kts
21-Nov-20 08:21 34.199638 -118.359027 37 718ft 1kts
21-Nov-20 08:22 34.200506 -118.358343 347 722ft 6kts
21-Nov-20 08:23 34.202944 -118.359015 346 729ft 8kts
21-Nov-20 08:24 34.204558 -118.359463 347 737ft 5kts
21-Nov-20 08:25 34.206314 -118.359946 345 749ft 6kts
21-Nov-20 08:27 34.208938 -118.360674 347 764ft 12kts
21-Nov-20 08:28 34.211477 -118.361221 34 779ft 0kts
21-Nov-20 08:29 34.211877 -118.360456 109 779ft 13kts
21-Nov-20 08:30 34.193353 -118.358768 217 1189ft 106kts
21-Nov-20 08:31 34.172187 -118.383982 225 2372ft 106kts
21-Nov-20 08:32 34.150958 -118.409575 229 3412ft 109kts
21-Nov-20 08:33 34.169460 -118.425260 352 4290ft 102kts
21-Nov-20 08:34 34.197802 -118.430941 352 5249ft 105kts
21-Nov-20 08:35 34.226970 -118.437066 354 6134ft 108kts
21-Nov-20 08:36 34.256959 -118.442190 355 6959ft 110kts
21-Nov-20 08:37 34.287705 -118.445903 356 7732ft 112kts
21-Nov-20 08:38 34.318942 -118.449094 355 8443ft 113kts
21-Nov-20 08:39 34.345350 -118.451726 356 9024ft 115kts
21-Nov-20 08:40 34.377497 -118.454479 355 9676ft 116kts
21-Nov-20 08:41 34.404316 -118.439980 56 10269ft 119kts
21-Nov-20 08:42 34.418042 -118.404601 53 10792ft 121kts
21-Nov-20 08:42 34.435446 -118.376932 52 11115ft 133kts
21-Nov-20 08:44 34.464031 -118.331521 52 11037ft 153kts
21-Nov-20 08:44 34.485577 -118.297199 52 11010ft 153kts
21-Nov-20 08:46 34.515364 -118.249670 52 11006ft 151kts
21-Nov-20 08:46 34.536549 -118.215813 52 11013ft 151kts
21-Nov-20 08:47 34.561945 -118.175183 52 10959ft 152kts
21-Nov-20 08:48 34.587642 -118.134020 52 10906ft 151kts
21-Nov-20 08:49 34.612881 -118.093543 52 10923ft 150kts
21-Nov-20 08:50 34.632543 -118.049446 77 10929ft 151kts
21-Nov-20 08:51 34.638584 -117.999130 82 10929ft 151kts
21-Nov-20 08:52 34.644036 -117.948751 82 10928ft 151kts
21-Nov-20 08:53 34.648751 -117.905517 82 10923ft 144kts
21-Nov-20 08:54 34.653822 -117.858893 82 10924ft 137kts
21-Nov-20 08:55 34.658811 -117.812860 82 10934ft 140kts
21-Nov-20 08:56 34.664135 -117.765826 78 10931ft 142kts
21-Nov-20 08:57 34.675236 -117.719967 72 10930ft 142kts
21-Nov-20 08:58 34.687008 -117.674509 73 10915ft 142kts
21-Nov-20 08:59 34.698710 -117.628867 73 10909ft 141kts
21-Nov-20 09:00 34.710317 -117.583513 72 10934ft 141kts
21-Nov-20 09:01 34.721937 -117.538031 72 10934ft 141kts
21-Nov-20 09:02 34.733551 -117.492496 72 10934ft 141kts
21-Nov-20 09:03 34.745144 -117.446958 72 10935ft 141kts
21-Nov-20 09:04 34.756705 -117.401463 72 10937ft 141kts
21-Nov-20 09:05 34.768239 -117.356000 72 10938ft 141kts
21-Nov-20 09:06 34.779812 -117.310300 72 10939ft 141kts
21-Nov-20 09:07 34.791335 -117.264704 72 10940ft 142kts
21-Nov-20 09:08 34.802949 -117.218690 72 10942ft 142kts
21-Nov-20 09:09 34.814544 -117.172664 72 10944ft 142kts
21-Nov-20 09:10 34.826176 -117.126409 72 10944ft 143kts
21-Nov-20 09:11 34.837745 -117.080321 72 10945ft 142kts
21-Nov-20 09:12 34.849337 -117.034054 72 10949ft 143kts
21-Nov-20 09:13 34.860941 -116.987659 72 10947ft 143kts
21-Nov-20 09:14 34.872525 -116.941262 72 10949ft 143kts
21-Nov-20 09:15 34.884135 -116.894681 72 10955ft 144kts
21-Nov-20 09:16 34.895789 -116.847836 72 10951ft 144kts
21-Nov-20 09:17 34.907415 -116.801018 72 10953ft 145kts
21-Nov-20 09:18 34.919071 -116.753982 72 10955ft 145kts
21-Nov-20 09:19 34.930704 -116.706962 72 10955ft 145kts
21-Nov-20 09:20 34.942360 -116.659766 72 10954ft 146kts
21-Nov-20 09:21 34.954021 -116.612457 72 10952ft 146kts
21-Nov-20 09:22 34.967784 -116.565972 61 10952ft 145kts
21-Nov-20 09:23 34.987016 -116.522906 60 10950ft 144kts
21-Nov-20 09:24 35.005892 -116.480543 60 10946ft 141kts
21-Nov-20 09:25 35.024596 -116.438418 60 10952ft 141kts
21-Nov-20 09:26 35.043362 -116.396097 60 10951ft 142kts
21-Nov-20 09:27 35.062129 -116.353735 60 10951ft 142kts
21-Nov-20 09:28 35.081052 -116.310962 60 10951ft 144kts
21-Nov-20 09:29 35.099907 -116.268296 60 10936ft 142kts
21-Nov-20 09:30 35.118576 -116.225985 60 10944ft 142kts
21-Nov-20 09:31 35.137347 -116.183399 60 10938ft 142kts
21-Nov-20 09:32 35.155977 -116.141088 60 10941ft 142kts
21-Nov-20 09:33 35.156518 -116.139852 60 10939ft 142kts
21-Nov-20 09:34 35.156518 -116.139852 60 10939ft 142kts
21-Nov-20 09:35 35.156518 -116.139852 60 10939ft 142kts
21-Nov-20 09:36 35.156518 -116.139852 60 10939ft 142kts
21-Nov-20 09:37 35.161554 -116.128403 61 10939ft 142kts
21-Nov-20 09:38 35.180146 -116.086106 60 10930ft 140kts
21-Nov-20 09:39 35.198643 -116.043969 60 10933ft 141kts
21-Nov-20 09:40 35.217069 -116.001938 60 10932ft 141kts
21-Nov-20 09:41 35.235489 -115.959872 60 10930ft 140kts
21-Nov-20 09:42 35.253905 -115.917760 61 10929ft 140kts
21-Nov-20 09:43 35.272304 -115.875636 61 10928ft 140kts
21-Nov-20 09:44 35.291111 -115.832522 61 10926ft 140kts
21-Nov-20 09:45 35.309529 -115.790825 56 10920ft 139kts
21-Nov-20 09:46 35.334471 -115.755053 46 10920ft 138kts
21-Nov-20 09:47 35.360784 -115.720336 46 10731ft 149kts
21-Nov-20 09:48 35.390403 -115.680841 47 10062ft 154kts
21-Nov-20 09:49 35.418415 -115.643440 47 9887ft 147kts
21-Nov-20 09:50 35.444744 -115.608242 47 9892ft 134kts
21-Nov-20 09:51 35.469511 -115.575098 47 9905ft 131kts
21-Nov-20 09:52 35.494269 -115.541933 47 9832ft 135kts
21-Nov-20 09:53 35.521669 -115.505211 46 9260ft 154kts
21-Nov-20 09:54 35.551211 -115.465599 46 8562ft 159kts
21-Nov-20 09:55 35.581039 -115.425542 46 7973ft 155kts
21-Nov-20 09:56 35.608908 -115.388076 45 7909ft 144kts
21-Nov-20 09:57 35.635789 -115.351890 45 7916ft 143kts
21-Nov-20 09:58 35.661423 -115.317372 45 7897ft 141kts
21-Nov-20 09:59 35.688098 -115.281372 45 7893ft 143kts
21-Nov-20 10:00 35.714969 -115.245099 45 7923ft 143kts
21-Nov-20 10:01 35.741778 -115.208864 46 7922ft 143kts
21-Nov-20 10:02 35.768630 -115.172529 46 7911ft 142kts
21-Nov-20 10:03 35.802892 -115.146957 22 7592ft 153kts
21-Nov-20 10:04 35.842566 -115.126125 22 7102ft 156kts
21-Nov-20 10:05 35.879979 -115.106313 22 6923ft 132kts
21-Nov-20 10:06 35.914541 -115.087880 22 6928ft 136kts
21-Nov-20 10:07 35.948602 -115.069647 22 6907ft 133kts
21-Nov-20 10:08 35.982598 -115.051515 22 5922ft 133kts
21-Nov-20 10:09 36.016646 -115.033569 22 5463ft 129kts
21-Nov-20 10:10 36.048877 -115.016580 22 5428ft 123kts
21-Nov-20 10:11 36.081068 -115.014178 342 5427ft 121kts
21-Nov-20 10:12 36.112507 -115.028338 332 4541ft 113kts
21-Nov-20 10:13 36.134865 -115.056395 298 3600ft 122kts
21-Nov-20 10:14 36.147508 -115.090231 297 3150ft 100kts
21-Nov-20 10:15 36.145684 -115.120664 237 3004ft 104kts
21-Nov-20 10:16 36.122855 -115.143363 204 2595ft 110kts
21-Nov-20 10:17 36.099247 -115.156666 206 2164ft 88kts
21-Nov-20 10:19 36.089305 -115.162549 238 2142ft 14kts
21-Nov-20 10:20 36.089362 -115.163467 280 2143ft 0kts
21-Nov-20 10:21 36.089661 -115.164270 275 2141ft 9kts
21-Nov-20 10:22 36.089443 -115.166314 270 2140ft 8kts
21-Nov-20 10:23 36.088826 -115.166921 180 2143ft 0kts
21-Nov-20 10:24 0.000408 0.013975 359 3ft 0kts
21-Nov-20 10:25 0.000408 0.013975 359 3ft 0kts
21-Nov-20 10:26 0.000408 0.013975 359 3ft 0kts
21-Nov-20 10:27 0.000408 0.013975 359 3ft 0kts
21-Nov-20 10:28 0.000408 0.013975 359 3ft 0kts
21-Nov-20 10:29 0.000408 0.013975 359 3ft 0kts
21-Nov-20 10:30 0.000408 0.013975 359 3ft 0kts

Navigation Log

Ident Type
Flight plan parsing failed, navigation log unavailable